Time;durP1;ratioP1;P1;durP2;ratioP2;P2;SDS_P1;SDS_P2;PMS_P1;PMS_P2;Temp;Humidity;BMP_temperature;BMP_pressure;BME280_temperature;BME280_humidity;BME280_pressure;Samples;Min_cycle;Max_cycle;Signal;HPM_P1;HPM_P2
2024/01/25 00:00:51;;;;;;;79.60;25.90;;;;;;;8.75;77.42;101832.22;4996535;28;20442;-83
2024/01/25 00:03:16;;;;;;;91.17;25.57;;;;;;;8.77;77.50;101824.38;4992614;28;20030;-85
2024/01/25 00:05:43;;;;;;;65.63;24.10;;;;;;;8.78;77.39;101826.16;4990635;28;20030;-85
2024/01/25 00:08:08;;;;;;;58.65;23.65;;;;;;;8.78;77.26;101822.66;4992023;28;20019;-85
2024/01/25 00:10:33;;;;;;;55.03;23.87;;;;;;;8.75;77.36;101813.84;4991168;28;20051;-84
2024/01/25 00:12:59;;;;;;;62.55;23.05;;;;;;;8.72;77.58;101820.72;4992147;28;20057;-84
2024/01/25 00:15:24;;;;;;;54.03;23.03;;;;;;;8.68;77.57;101819.78;4992408;28;20548;-85
2024/01/25 00:17:51;;;;;;;53.80;21.57;;;;;;;8.65;77.98;101822.28;4992131;28;20378;-85
2024/01/25 00:20:16;;;;;;;58.13;21.75;;;;;;;8.61;77.58;101812.53;5010364;28;20573;-85
2024/01/25 00:22:42;;;;;;;57.50;20.80;;;;;;;8.59;77.67;101817.75;4994521;28;20120;-85
2024/01/25 00:25:07;;;;;;;47.50;20.57;;;;;;;8.55;77.84;101813.25;4999867;28;20029;-84
2024/01/25 00:27:33;;;;;;;45.70;20.42;;;;;;;8.51;77.71;101811.38;4992553;28;20050;-84
2024/01/25 00:29:58;;;;;;;39.30;18.90;;;;;;;8.47;77.84;101809.47;5008098;28;20037;-85
2024/01/25 00:32:23;;;;;;;40.00;19.47;;;;;;;8.45;77.92;101809.44;4997057;28;20089;-83
2024/01/25 00:34:49;;;;;;;46.43;18.77;;;;;;;8.42;78.03;101809.34;4991392;28;20029;-83
2024/01/25 00:37:15;;;;;;;41.63;18.73;;;;;;;8.42;77.82;101795.31;4990759;28;20060;-83
2024/01/25 00:39:41;;;;;;;38.85;18.75;;;;;;;8.37;77.91;101802.19;4991331;28;20065;-85
2024/01/25 00:42:07;;;;;;;42.57;19.23;;;;;;;8.36;77.98;101805.66;4991054;28;20027;-84
2024/01/25 00:44:33;;;;;;;40.45;18.60;;;;;;;8.34;77.87;101797.72;5009855;28;20222;-86
2024/01/25 00:46:59;;;;;;;40.57;18.20;;;;;;;8.30;77.97;101791.47;5017379;28;20057;-83
2024/01/25 00:49:25;;;;;;;44.83;18.38;;;;;;;8.28;78.08;101790.53;5016374;28;20026;-82
2024/01/25 00:51:58;;;;;;;40.35;17.92;;;;;;;8.25;77.71;101795.69;4996492;28;20052;-85
2024/01/25 00:54:24;;;;;;;44.42;18.88;;;;;;;8.23;77.94;101799.16;4993349;28;20026;-84
2024/01/25 00:56:52;;;;;;;41.40;18.33;;;;;;;8.19;77.76;101793.78;4990769;28;20034;-82
2024/01/25 00:59:18;;;;;;;38.47;17.98;;;;;;;8.13;77.78;101793.59;4989485;28;20030;-85
2024/01/25 01:01:46;;;;;;;34.38;17.15;;;;;;;8.11;77.80;101794.41;4989503;28;20074;-85
2024/01/25 01:04:12;;;;;;;36.13;17.10;;;;;;;8.07;77.82;101789.88;4990362;28;20603;-85
2024/01/25 01:06:38;;;;;;;35.30;16.40;;;;;;;8.03;77.74;101787.19;4987956;28;20132;-85
2024/01/25 01:09:03;;;;;;;33.50;16.73;;;;;;;7.97;77.56;101786.13;4990697;28;20018;-85
2024/01/25 01:11:30;;;;;;;28.53;14.70;;;;;;;7.86;77.94;101783.16;4990722;28;20483;-84
2024/01/25 01:13:55;;;;;;;24.67;13.60;;;;;;;7.78;77.72;101782.91;4990257;28;20030;-85
2024/01/25 01:16:20;;;;;;;26.90;13.70;;;;;;;7.79;77.87;101789.03;4990809;28;20038;-85
2024/01/25 01:18:46;;;;;;;25.83;13.00;;;;;;;7.76;77.84;101777.59;4990827;28;20391;-85
2024/01/25 01:21:12;;;;;;;27.80;14.30;;;;;;;7.75;78.19;101781.06;4991119;28;20033;-84
2024/01/25 01:23:37;;;;;;;22.53;13.20;;;;;;;7.74;77.89;101784.53;4991232;28;20046;-85
2024/01/25 01:26:04;;;;;;;26.27;13.80;;;;;;;7.71;77.50;101784.44;4991591;28;20513;-85
2024/01/25 01:28:29;;;;;;;27.65;13.35;;;;;;;7.69;77.73;101774.72;4991208;28;20045;-85
2024/01/25 01:30:55;;;;;;;25.13;13.93;;;;;;;7.67;77.47;101774.69;4991262;28;20038;-85
2024/01/25 01:33:20;;;;;;;37.10;15.87;;;;;;;7.65;77.54;101773.75;4991179;28;20022;-85
2024/01/25 01:35:46;;;;;;;42.22;15.30;;;;;;;7.60;77.81;101772.72;4991330;28;20026;-84
2024/01/25 01:38:11;;;;;;;35.77;14.93;;;;;;;7.58;77.63;101774.38;4972935;28;20057;-84
2024/01/25 01:40:37;;;;;;;31.63;13.17;;;;;;;7.56;77.93;101776.06;4998481;28;20033;-84
2024/01/25 01:43:02;;;;;;;42.92;12.10;;;;;;;7.55;78.47;101772.56;4993420;28;20061;-83
2024/01/25 01:45:28;;;;;;;32.67;12.07;;;;;;;7.55;77.76;101782.16;4989454;28;20526;-84
2024/01/25 01:47:55;;;;;;;31.97;12.00;;;;;;;7.52;78.07;101780.31;4990520;28;20050;-84
2024/01/25 01:50:24;;;;;;;32.13;11.50;;;;;;;7.49;77.53;101795.97;4972631;28;20277;-84
2024/01/25 01:52:50;;;;;;;21.45;10.13;;;;;;;7.46;77.79;101791.50;4989398;28;20034;-80
2024/01/25 01:55:17;;;;;;;23.92;10.60;;;;;;;7.44;78.11;101795.78;4989869;28;20559;-83
2024/01/25 01:57:43;;;;;;;21.98;10.65;;;;;;;7.43;77.75;101793.09;4989757;28;20580;-84
2024/01/25 02:00:09;;;;;;;19.05;10.30;;;;;;;7.41;77.83;101795.69;4989711;28;20050;-84
2024/01/25 02:02:37;;;;;;;17.77;9.17;;;;;;;7.41;77.64;101786.94;4989782;28;20054;-84
2024/01/25 02:05:02;;;;;;;18.33;10.13;;;;;;;7.36;77.26;101785.88;4971495;28;20038;-84
2024/01/25 02:07:29;;;;;;;16.80;8.80;;;;;;;7.29;77.83;101790.94;4975625;28;20278;-84
2024/01/25 02:09:54;;;;;;;16.38;8.75;;;;;;;7.23;77.84;101780.22;4989748;28;20023;-84
2024/01/25 02:12:20;;;;;;;14.93;8.13;;;;;;;7.21;77.52;101786.25;4989664;28;20070;-81
2024/01/25 02:14:45;;;;;;;12.13;7.17;;;;;;;7.16;77.83;101792.25;4989489;28;20022;-85
2024/01/25 02:17:11;;;;;;;13.13;7.22;;;;;;;7.13;77.83;101784.28;4990474;28;20085;-85
2024/01/25 02:19:36;;;;;;;13.07;6.80;;;;;;;7.11;77.85;101779.81;4990516;28;20034;-84
2024/01/25 02:22:04;;;;;;;14.90;7.83;;;;;;;7.06;77.99;101784.88;4990903;28;20022;-85
2024/01/25 02:24:30;;;;;;;14.63;7.25;;;;;;;7.02;77.48;101776.03;4990390;28;20034;-85
2024/01/25 02:26:56;;;;;;;12.60;7.13;;;;;;;7.04;77.74;101773.47;4990170;28;20097;-85
2024/01/25 02:29:21;;;;;;;14.80;7.18;;;;;;;7.08;77.78;101780.59;4991072;28;20038;-83
2024/01/25 02:31:47;;;;;;;13.17;7.17;;;;;;;7.13;77.96;101768.56;4994494;28;20102;-84
2024/01/25 02:34:12;;;;;;;14.07;7.27;;;;;;;7.16;77.71;101765.13;4994508;28;20104;-85
2024/01/25 02:36:37;;;;;;;15.13;6.82;;;;;;;7.18;77.78;101761.75;4994580;28;20113;-84
2024/01/25 02:39:04;;;;;;;10.53;6.20;;;;;;;7.15;78.15;101764.25;4994193;28;20026;-85
2024/01/25 02:41:31;;;;;;;14.30;6.60;;;;;;;7.12;78.23;101764.16;5005082;28;20057;-84
2024/01/25 02:43:56;;;;;;;11.27;6.23;;;;;;;7.11;78.26;101766.72;4994244;28;20113;-84
2024/01/25 02:46:21;;;;;;;11.32;6.20;;;;;;;7.15;78.09;101764.25;4993997;28;20118;-84
2024/01/25 02:48:47;;;;;;;12.20;6.57;;;;;;;7.14;78.48;101759.84;4994290;28;20034;-83
2024/01/25 02:51:12;;;;;;;12.53;6.00;;;;;;;7.13;78.31;101760.69;4993347;28;20037;-84
2024/01/25 02:53:37;;;;;;;11.63;6.67;;;;;;;7.14;78.62;101758.94;4991554;28;20038;-84
2024/01/25 02:56:03;;;;;;;13.17;6.83;;;;;;;7.18;78.27;101756.50;4993244;28;20649;-85
2024/01/25 02:58:28;;;;;;;12.30;6.75;;;;;;;7.22;78.65;101751.38;4993211;28;20029;-84
2024/01/25 03:00:54;;;;;;;13.73;6.20;;;;;;;7.24;78.59;101744.44;4992796;28;20042;-84
2024/01/25 03:03:19;;;;;;;12.37;6.80;;;;;;;7.26;78.49;101732.28;4992983;28;20049;-84
2024/01/25 03:05:45;;;;;;;13.20;7.20;;;;;;;7.28;78.58;101741.06;4992991;28;20110;-84
2024/01/25 03:08:10;;;;;;;12.10;6.83;;;;;;;7.24;78.65;101734.88;4993772;28;20041;-84
2024/01/25 03:10:36;;;;;;;12.00;6.53;;;;;;;7.25;79.08;101733.13;4993066;28;20073;-85
2024/01/25 03:13:01;;;;;;;14.07;7.30;;;;;;;7.26;78.98;101729.66;4991607;28;20514;-84
2024/01/25 03:15:26;;;;;;;13.63;7.30;;;;;;;7.27;79.21;101736.69;4992643;28;20026;-84
2024/01/25 03:17:52;;;;;;;14.35;7.10;;;;;;;7.28;78.96;101730.59;4992518;28;20427;-84
2024/01/25 03:20:17;;;;;;;16.30;7.73;;;;;;;7.28;79.09;101721.03;4993243;28;20021;-83
2024/01/25 03:22:42;;;;;;;16.53;7.77;;;;;;;7.29;79.61;101721.91;4993435;28;20034;-85
2024/01/25 03:25:08;;;;;;;17.23;8.33;;;;;;;7.27;79.68;101719.25;4990702;28;20545;-84
2024/01/25 03:27:34;;;;;;;18.70;7.88;;;;;;;7.24;80.08;101721.75;4977116;28;20019;-84
2024/01/25 03:29:59;;;;;;;19.77;8.17;;;;;;;7.25;80.50;101720.03;4992411;28;20253;-85
2024/01/25 03:32:25;;;;;;;17.35;7.93;;;;;;;7.26;80.52;101719.19;4974491;28;20101;-85
2024/01/25 03:34:50;;;;;;;18.07;7.03;;;;;;;7.28;80.22;101720.13;4992404;28;20142;-84
2024/01/25 03:37:15;;;;;;;17.30;7.50;;;;;;;7.32;80.18;101714.13;4992568;28;20034;-84
2024/01/25 03:39:41;;;;;;;22.10;8.07;;;;;;;7.37;80.35;101720.44;4993051;28;20029;-84
2024/01/25 03:42:06;;;;;;;22.83;8.70;;;;;;;7.40;80.41;101715.28;5000040;28;20526;-85
2024/01/25 03:44:32;;;;;;;19.25;8.07;;;;;;;7.41;80.33;101701.34;4992592;28;20037;-84
2024/01/25 03:46:57;;;;;;;20.30;8.43;;;;;;;7.40;80.29;101698.66;4992812;28;20575;-84
2024/01/25 03:49:23;;;;;;;16.87;8.03;;;;;;;7.40;80.55;101693.41;4975297;28;20169;-84
2024/01/25 03:51:49;;;;;;;21.07;8.40;;;;;;;7.41;80.63;101689.94;4993185;28;20505;-84
2024/01/25 03:54:14;;;;;;;25.03;8.60;;;;;;;7.43;80.40;101676.06;4993063;28;20273;-84
2024/01/25 03:56:40;;;;;;;24.40;8.27;;;;;;;7.45;80.52;101682.25;4993207;28;20217;-84
2024/01/25 03:59:10;;;;;;;28.60;9.40;;;;;;;7.46;80.99;101676.16;4992925;28;20821;-84
2024/01/25 04:01:41;;;;;;;19.83;8.45;;;;;;;7.48;80.51;101676.22;4992643;28;20050;-84
2024/01/25 04:04:09;;;;;;;24.93;8.50;;;;;;;7.49;80.82;101671.84;4992607;28;20149;-85
2024/01/25 04:06:34;;;;;;;25.20;8.75;;;;;;;7.51;81.08;101663.22;4992595;28;20037;-85
2024/01/25 04:08:59;;;;;;;23.73;8.87;;;;;;;7.53;80.69;101671.09;4992867;28;20030;-84
2024/01/25 04:11:25;;;;;;;16.97;7.97;;;;;;;7.55;80.94;101674.66;4992969;28;20026;-84
2024/01/25 04:13:50;;;;;;;25.43;8.20;;;;;;;7.60;81.04;101675.72;4992054;28;20281;-83
2024/01/25 04:16:15;;;;;;;19.20;8.57;;;;;;;7.60;81.12;101670.47;4992698;28;20085;-84
2024/01/25 04:18:41;;;;;;;20.67;8.33;;;;;;;7.58;80.91;101662.56;4992774;28;20548;-84
2024/01/25 04:21:06;;;;;;;22.87;8.97;;;;;;;7.57;81.01;101665.13;4992354;28;20459;-84
2024/01/25 04:23:32;;;;;;;21.80;8.82;;;;;;;7.57;81.02;101659.88;4992521;28;20030;-84
2024/01/25 04:25:57;;;;;;;21.63;8.23;;;;;;;7.59;81.13;101663.41;4992929;28;20057;-81
2024/01/25 04:28:22;;;;;;;23.13;8.67;;;;;;;7.62;81.04;101653.06;4992469;28;20418;-84
2024/01/25 04:30:48;;;;;;;23.33;7.83;;;;;;;7.65;81.13;101663.63;4992260;28;20027;-84
2024/01/25 04:33:13;;;;;;;16.43;7.83;;;;;;;7.69;81.23;101659.34;4992281;28;20475;-84
2024/01/25 04:35:38;;;;;;;17.55;7.60;;;;;;;7.70;81.34;101662.03;4992216;28;20069;-83
2024/01/25 04:38:04;;;;;;;22.30;8.13;;;;;;;7.71;81.29;101658.56;4974470;28;20038;-84
2024/01/25 04:40:30;;;;;;;17.03;7.43;;;;;;;7.73;80.91;101662.13;4991878;28;20121;-85
2024/01/25 04:42:55;;;;;;;19.60;8.02;;;;;;;7.74;81.22;101663.91;4974144;28;20026;-85
2024/01/25 04:45:20;;;;;;;19.77;8.00;;;;;;;7.75;81.12;101660.44;4974131;28;20042;-82
2024/01/25 04:47:46;;;;;;;16.87;7.37;;;;;;;7.80;81.07;101659.69;4990971;28;20410;-84
2024/01/25 04:50:11;;;;;;;19.30;7.87;;;;;;;7.82;81.31;101655.38;4992386;28;20026;-85
2024/01/25 04:52:36;;;;;;;22.17;8.17;;;;;;;7.83;81.24;101663.28;4991360;28;20038;-84
2024/01/25 04:55:02;;;;;;;26.17;8.27;;;;;;;7.82;81.08;101650.13;4991307;28;20104;-84
2024/01/25 04:57:28;;;;;;;21.93;7.73;;;;;;;7.80;81.01;101657.06;4992017;28;20277;-84
2024/01/25 04:59:53;;;;;;;20.23;7.27;;;;;;;7.76;81.50;101656.97;4991288;28;20046;-84
2024/01/25 05:02:18;;;;;;;21.45;7.97;;;;;;;7.78;81.41;101664.00;4991673;28;20033;-83
2024/01/25 05:04:44;;;;;;;22.10;8.10;;;;;;;7.79;81.33;101660.53;4990906;28;20041;-81
2024/01/25 05:07:11;;;;;;;20.40;7.57;;;;;;;7.75;81.61;101659.56;4973562;28;20061;-83
2024/01/25 05:09:37;;;;;;;19.63;7.22;;;;;;;7.73;81.95;101656.88;4991600;28;20451;-83
2024/01/25 05:12:02;;;;;;;20.27;7.57;;;;;;;7.74;82.03;101658.66;4991437;28;20126;-84
2024/01/25 05:14:28;;;;;;;20.53;8.13;;;;;;;7.74;81.85;101648.16;4991609;28;20124;-83
2024/01/25 05:16:53;;;;;;;18.30;8.13;;;;;;;7.74;81.69;101656.03;4991653;28;20034;-84
2024/01/25 05:19:18;;;;;;;16.97;7.27;;;;;;;7.74;81.69;101653.41;4989362;28;20066;-82
2024/01/25 05:21:44;;;;;;;18.33;7.43;;;;;;;7.75;81.99;101649.94;4991302;28;20050;-84
2024/01/25 05:24:10;;;;;;;18.83;7.93;;;;;;;7.76;81.97;101656.97;4991423;28;20026;-84
2024/01/25 05:26:35;;;;;;;20.08;8.30;;;;;;;7.76;81.90;101651.72;4990964;28;20030;-83
2024/01/25 05:29:01;;;;;;;23.77;8.47;;;;;;;7.76;81.39;101650.84;4990842;28;20036;-82
2024/01/25 05:31:26;;;;;;;24.40;8.67;;;;;;;7.75;82.12;101643.84;4991329;28;20022;-84
2024/01/25 05:33:52;;;;;;;19.95;7.80;;;;;;;7.74;82.20;101648.16;4990965;28;20019;-84
2024/01/25 05:36:17;;;;;;;19.47;7.90;;;;;;;7.74;82.49;101642.94;4991049;28;20577;-84
2024/01/25 05:38:42;;;;;;;19.00;7.40;;;;;;;7.71;82.07;101640.22;4991071;28;20089;-84
2024/01/25 05:41:08;;;;;;;20.33;8.27;;;;;;;7.70;82.57;101640.16;4990699;28;20545;-84
2024/01/25 05:43:33;;;;;;;22.90;8.97;;;;;;;7.68;82.78;101642.75;4990041;28;20372;-84
2024/01/25 05:45:58;;;;;;;34.73;15.07;;;;;;;7.66;82.68;101638.28;4990941;28;20038;-84
2024/01/25 05:48:24;;;;;;;36.03;15.93;;;;;;;7.64;82.79;101638.25;4991185;28;20026;-83
2024/01/25 05:50:49;;;;;;;34.80;16.23;;;;;;;7.62;82.91;101632.09;4990008;28;20461;-84
2024/01/25 05:53:16;;;;;;;30.67;13.07;;;;;;;7.64;82.96;101640.88;4989742;28;20568;-83
2024/01/25 05:55:41;;;;;;;25.52;11.90;;;;;;;7.65;83.15;101637.41;4990537;28;20029;-84
2024/01/25 05:58:07;;;;;;;25.17;10.37;;;;;;;7.66;82.53;101633.03;4990694;28;20109;-84
2024/01/25 06:00:33;;;;;;;28.47;9.63;;;;;;;7.67;82.95;101640.97;4990255;28;20125;-83
2024/01/25 06:02:58;;;;;;;17.80;8.88;;;;;;;7.71;83.02;101647.19;4989418;28;20497;-83
2024/01/25 06:05:24;;;;;;;21.57;8.90;;;;;;;7.74;82.78;101648.16;4988835;28;20042;-84
2024/01/25 06:07:50;;;;;;;29.87;9.50;;;;;;;7.78;82.37;101637.78;4990499;28;20030;-84
2024/01/25 06:10:15;;;;;;;26.67;8.82;;;;;;;7.79;82.81;101644.78;4990521;28;20035;-83
2024/01/25 06:12:41;;;;;;;25.27;8.60;;;;;;;7.76;82.81;101646.47;4990505;28;20439;-83
2024/01/25 06:15:07;;;;;;;27.45;9.38;;;;;;;7.73;83.10;101646.41;4990400;28;20502;-84
2024/01/25 06:17:32;;;;;;;32.10;9.40;;;;;;;7.73;82.93;101651.63;4990403;28;20104;-84
2024/01/25 06:19:57;;;;;;;20.83;7.78;;;;;;;7.73;83.22;101654.25;4990270;28;20034;-84
2024/01/25 06:22:23;;;;;;;20.83;7.37;;;;;;;7.73;83.37;101651.63;4989362;28;20050;-84
2024/01/25 06:24:48;;;;;;;27.40;8.20;;;;;;;7.75;83.08;101655.19;4990506;28;20042;-84
2024/01/25 06:27:14;;;;;;;21.73;8.23;;;;;;;7.78;82.75;101661.38;4990183;28;20105;-84
2024/01/25 06:29:39;;;;;;;23.43;7.63;;;;;;;7.78;82.86;101656.13;4990067;28;20044;-83
2024/01/25 06:32:06;;;;;;;23.38;8.88;;;;;;;7.80;82.69;101651.81;4990252;28;20096;-84
2024/01/25 06:34:31;;;;;;;23.73;9.00;;;;;;;7.81;82.72;101658.84;4990294;28;20026;-83
2024/01/25 06:36:57;;;;;;;24.83;9.20;;;;;;;7.81;82.81;101640.47;4990342;28;20057;-83
2024/01/25 06:39:22;;;;;;;25.23;8.30;;;;;;;7.82;83.03;101644.88;4989277;28;20038;-82
2024/01/25 06:41:48;;;;;;;18.10;8.07;;;;;;;7.82;83.13;101647.50;4998193;28;20088;-83
2024/01/25 06:44:13;;;;;;;26.70;8.63;;;;;;;7.82;83.04;101647.50;4989771;28;20034;-84
2024/01/25 06:46:38;;;;;;;25.65;7.70;;;;;;;7.84;82.77;101653.72;4989956;28;20041;-84
2024/01/25 06:49:04;;;;;;;26.80;7.83;;;;;;;7.80;82.89;101652.72;4989223;28;20042;-84
2024/01/25 06:51:29;;;;;;;20.87;7.50;;;;;;;7.79;82.88;101655.28;4986947;28;20515;-83
2024/01/25 06:53:55;;;;;;;22.43;7.63;;;;;;;7.78;83.18;101659.66;4989095;28;20035;-84
2024/01/25 06:56:20;;;;;;;17.80;7.13;;;;;;;7.81;82.82;101664.09;4989979;28;20027;-84
2024/01/25 06:58:46;;;;;;;19.93;7.00;;;;;;;7.84;83.17;101664.19;4987904;28;20026;-82
2024/01/25 07:01:45;;;;;;;19.93;7.23;;;;;;;7.84;82.93;101656.34;5086912;27;20382;-80
2024/01/25 07:04:12;;;;;;;18.35;7.47;;;;;;;7.79;83.64;101650.03;5086157;28;20070;-81
2024/01/25 07:06:37;;;;;;;15.80;7.20;;;;;;;7.74;83.66;101648.16;5086588;28;20036;-78
2024/01/25 07:09:03;;;;;;;21.80;8.25;;;;;;;7.72;83.87;101644.63;5085371;28;20090;-76
2024/01/25 07:11:29;;;;;;;22.77;8.57;;;;;;;7.71;83.65;101648.09;5070650;28;20081;-81
2024/01/25 07:13:54;;;;;;;21.08;8.85;;;;;;;7.65;84.60;101637.41;5066516;28;20128;-84
2024/01/25 07:16:20;;;;;;;19.67;7.37;;;;;;;7.64;84.43;101634.72;5066561;28;20123;-77
2024/01/25 07:18:45;;;;;;;17.77;6.23;;;;;;;7.60;84.19;101639.03;5078972;28;20032;-80
2024/01/25 07:21:10;;;;;;;19.08;6.93;;;;;;;7.60;83.89;101634.66;5086333;28;20031;-76
2024/01/25 07:23:36;;;;;;;23.40;7.80;;;;;;;7.59;84.15;101631.97;5086398;28;21157;-78
2024/01/25 07:26:01;;;;;;;19.13;7.40;;;;;;;7.54;84.41;101639.72;5086976;28;20081;-79
2024/01/25 07:28:27;;;;;;;23.40;6.80;;;;;;;7.52;83.90;101640.50;5067364;28;20563;-76
2024/01/25 07:30:52;;;;;;;18.13;6.07;;;;;;;7.46;84.53;101636.84;5086385;28;20020;-77
2024/01/25 07:33:18;;;;;;;12.27;5.00;;;;;;;7.45;84.45;101648.19;5086615;28;20500;-78
2024/01/25 07:39:20;;;;;;;17.33;4.65;;;;;;;7.40;84.04;101646.25;5085212;28;20534;-81
2024/01/25 07:41:45;;;;;;;19.75;5.10;;;;;;;7.38;84.54;101653.16;5086097;28;20516;-84
2024/01/25 07:44:11;;;;;;;18.13;4.30;;;;;;;7.37;84.13;101641.81;5106255;28;20039;-80
2024/01/25 07:46:36;;;;;;;23.23;5.23;;;;;;;7.37;83.92;101652.31;5106458;28;20102;-82
2024/01/25 07:49:01;;;;;;;13.35;4.38;;;;;;;7.40;84.49;101647.16;5089667;28;20254;-84
2024/01/25 07:51:28;;;;;;;13.30;4.30;;;;;;;7.44;84.14;101649.03;5086462;28;20029;-81
2024/01/25 07:53:54;;;;;;;15.48;3.97;;;;;;;7.49;84.14;101643.94;5086156;28;20021;-81
2024/01/25 07:56:21;;;;;;;19.70;3.93;;;;;;;7.52;83.77;101646.66;5086125;28;20029;-79
2024/01/25 07:58:48;;;;;;;13.80;4.50;;;;;;;7.57;83.76;101641.53;5085964;28;20526;-79
2024/01/25 08:01:17;;;;;;;19.92;4.53;;;;;;;7.61;83.82;101648.66;5084194;28;20123;-85
2024/01/25 08:03:43;;;;;;;14.75;3.80;;;;;;;7.64;83.52;101645.22;5085790;28;20507;-85
2024/01/25 08:06:08;;;;;;;21.30;4.63;;;;;;;7.62;83.21;101647.81;5076801;28;20032;-83
2024/01/25 08:08:34;;;;;;;13.90;4.37;;;;;;;7.59;83.58;101651.22;5085817;28;20510;-84
2024/01/25 08:10:59;;;;;;;12.23;4.47;;;;;;;7.61;83.44;101651.28;5083458;28;20048;-86
2024/01/25 08:13:25;;;;;;;12.27;4.57;;;;;;;7.65;83.07;101650.53;5052333;28;20133;-85
2024/01/25 08:15:51;;;;;;;35.07;5.47;;;;;;;7.65;83.55;101647.91;5059849;28;20523;-83
2024/01/25 08:18:18;;;;;;;11.13;3.20;;;;;;;7.64;83.45;101651.38;5071117;28;20028;-76
2024/01/25 08:20:44;;;;;;;11.82;3.38;;;;;;;7.58;83.34;101657.31;5072147;28;20500;-85
2024/01/25 08:23:09;;;;;;;43.33;4.10;;;;;;;7.56;83.37;101660.72;5071974;28;20032;-87
2024/01/25 08:25:35;;;;;;;10.40;3.33;;;;;;;7.55;83.14;101658.94;5070699;28;20116;-86
2024/01/25 08:28:01;;;;;;;25.48;3.65;;;;;;;7.55;83.15;101667.69;5071023;28;20033;-82
2024/01/25 08:30:26;;;;;;;33.17;4.13;;;;;;;7.57;83.10;101665.13;5068711;28;20161;-85
2024/01/25 08:32:51;;;;;;;19.93;3.60;;;;;;;7.59;83.18;101666.03;5072089;28;20044;-76
2024/01/25 08:35:17;;;;;;;22.23;4.28;;;;;;;7.63;82.89;101661.78;5039623;28;20036;-80
2024/01/25 08:37:43;;;;;;;30.30;4.03;;;;;;;7.67;82.91;101656.72;5051956;28;20646;-79
2024/01/25 08:40:09;;;;;;;9.87;3.73;;;;;;;7.71;82.89;101658.56;5058863;28;20034;-78
2024/01/25 08:42:35;;;;;;;17.50;4.30;;;;;;;7.75;82.67;101655.19;5069491;28;20036;-82
2024/01/25 08:45:01;;;;;;;24.40;4.30;;;;;;;7.80;82.78;101652.72;5071085;28;20037;-83
2024/01/25 08:47:26;;;;;;;23.13;5.20;;;;;;;7.83;82.27;101657.16;5070375;28;20081;-81
2024/01/25 08:49:52;;;;;;;31.67;6.18;;;;;;;7.76;82.75;101656.09;5071681;28;20035;-82
2024/01/25 08:52:17;;;;;;;38.67;6.50;;;;;;;7.70;82.59;101662.03;5071652;28;20494;-81
2024/01/25 08:54:43;;;;;;;46.83;6.10;;;;;;;7.64;83.16;101660.97;5071488;28;20032;-82
2024/01/25 08:57:09;;;;;;;29.85;6.65;;;;;;;7.60;82.93;101667.84;5071408;28;20099;-81
2024/01/25 08:59:37;;;;;;;62.60;8.00;;;;;;;7.55;83.26;101662.47;5071007;28;20378;-82
2024/01/25 09:02:06;;;;;;;41.10;8.03;;;;;;;7.56;83.07;101665.97;5071437;28;20299;-82
2024/01/25 09:04:32;;;;;;;23.25;6.93;;;;;;;7.55;83.02;101665.09;5071323;28;20029;-82
2024/01/25 09:06:58;;;;;;;52.80;7.68;;;;;;;7.56;83.68;101668.56;5070924;28;20043;-82
2024/01/25 09:09:23;;;;;;;48.05;7.55;;;;;;;7.58;82.89;101666.88;5053219;28;20416;-81
2024/01/25 09:11:49;;;;;;;55.87;7.50;;;;;;;7.63;83.34;101669.66;5071274;28;20029;-78
2024/01/25 09:14:14;;;;;;;47.73;8.33;;;;;;;7.65;82.79;101668.88;5071039;28;20461;-82
2024/01/25 09:16:40;;;;;;;35.20;8.20;;;;;;;7.68;83.26;101665.44;5071021;28;20036;-82
2024/01/25 09:19:05;;;;;;;42.53;8.00;;;;;;;7.71;83.21;101674.31;5071056;28;20032;-81
2024/01/25 09:21:31;;;;;;;40.03;8.87;;;;;;;7.69;83.15;101665.50;5070768;28;20024;-81
2024/01/25 09:23:56;;;;;;;41.67;8.53;;;;;;;7.66;83.23;101670.66;5070270;28;20027;-77
2024/01/25 09:26:22;;;;;;;40.20;8.65;;;;;;;7.70;83.17;101676.88;5070614;28;20021;-79
2024/01/25 09:28:47;;;;;;;39.33;9.97;;;;;;;7.72;82.91;101676.09;5070904;28;20546;-82
2024/01/25 09:31:12;;;;;;;82.27;11.50;;;;;;;7.72;83.00;101685.69;5070903;28;20113;-82
2024/01/25 09:33:38;;;;;;;44.07;11.20;;;;;;;7.73;82.92;101680.47;5070988;28;20031;-82
2024/01/25 09:36:03;;;;;;;31.02;8.85;;;;;;;7.78;82.79;101679.72;5070724;28;20124;-79
2024/01/25 09:38:29;;;;;;;20.73;8.73;;;;;;;7.84;82.67;101677.31;5070583;28;20094;-79
2024/01/25 09:40:56;;;;;;;24.05;8.50;;;;;;;7.86;82.61;101679.13;5078522;28;20530;-82
2024/01/25 09:43:22;;;;;;;28.37;7.87;;;;;;;7.92;82.49;101682.75;5070423;28;20040;-82
2024/01/25 09:45:53;;;;;;;30.25;8.88;;;;;;;7.97;82.54;101674.19;5070279;28;20480;-82
2024/01/25 09:48:18;;;;;;;45.58;8.93;;;;;;;8.02;82.45;101680.47;5070477;28;20028;-82
2024/01/25 09:50:48;;;;;;;24.50;8.93;;;;;;;8.02;82.07;101672.59;5070511;28;20020;-81
2024/01/25 09:53:20;;;;;;;19.45;7.88;;;;;;;8.07;82.25;101677.06;5070251;28;20031;-81
2024/01/25 09:55:57;;;;;;;29.15;7.90;;;;;;;8.11;82.21;101678.97;5070376;28;20032;-77
2024/01/25 09:58:25;;;;;;;21.40;6.75;;;;;;;8.13;81.88;101683.41;5070409;28;20519;-80
2024/01/25 10:00:50;;;;;;;20.27;7.00;;;;;;;8.21;81.78;101670.50;5069859;28;20053;-82
2024/01/25 10:03:16;;;;;;;18.02;6.70;;;;;;;8.29;81.91;101671.59;5069977;28;20031;-82
2024/01/25 10:05:41;;;;;;;14.73;4.97;;;;;;;8.37;81.46;101668.31;5070457;28;20040;-82
2024/01/25 10:08:13;;;;;;;23.60;6.13;;;;;;;8.44;81.56;101662.38;5069949;28;20025;-82
2024/01/25 10:10:38;;;;;;;15.25;5.32;;;;;;;8.50;81.10;101659.94;5070149;28;20496;-82
2024/01/25 10:13:05;;;;;;;11.67;4.93;;;;;;;8.57;81.02;101667.16;5070086;28;20024;-82
2024/01/25 10:15:30;;;;;;;13.00;5.07;;;;;;;8.57;80.76;101675.03;5069762;28;20048;-80
2024/01/25 10:17:56;;;;;;;12.80;5.17;;;;;;;8.56;81.04;101665.38;5051945;28;20106;-82
2024/01/25 10:20:24;;;;;;;11.35;4.85;;;;;;;8.63;80.97;101661.16;5069667;28;20033;-82
2024/01/25 10:22:49;;;;;;;13.63;4.93;;;;;;;8.74;80.74;101666.69;5069854;28;20040;-82
2024/01/25 10:25:15;;;;;;;21.60;5.67;;;;;;;8.86;80.93;101666.13;5069990;28;20043;-79
2024/01/25 10:27:40;;;;;;;18.90;4.70;;;;;;;9.01;80.24;101660.38;5069818;28;20396;-82
2024/01/25 10:30:07;;;;;;;10.60;5.20;;;;;;;9.12;80.40;101658.91;5069578;28;20434;-82
2024/01/25 10:32:34;;;;;;;10.20;5.03;;;;;;;9.24;79.87;101655.69;5069566;28;20028;-81
2024/01/25 10:35:01;;;;;;;17.40;5.63;;;;;;;9.30;79.57;101652.34;5069348;28;20036;-82
2024/01/25 10:37:28;;;;;;;11.63;5.10;;;;;;;9.32;79.38;101651.50;5069489;28;20036;-80
2024/01/25 10:39:55;;;;;;;13.20;6.65;;;;;;;9.35;79.36;101655.94;5071759;28;20032;-82
2024/01/25 10:42:21;;;;;;;10.53;4.73;;;;;;;9.36;79.57;101641.94;5089567;28;20024;-81
2024/01/25 10:44:46;;;;;;;11.52;5.40;;;;;;;9.40;79.68;101643.78;5089478;28;20490;-82
2024/01/25 10:47:12;;;;;;;14.87;5.80;;;;;;;9.41;79.34;101637.69;5089598;28;20493;-81
2024/01/25 10:49:37;;;;;;;13.82;5.45;;;;;;;9.43;79.51;101638.59;5087268;28;20537;-82
2024/01/25 10:52:06;;;;;;;14.67;6.63;;;;;;;9.46;79.27;101628.16;5069594;28;20029;-82
2024/01/25 10:54:32;;;;;;;11.63;5.28;;;;;;;9.54;79.67;101635.34;5069646;28;20286;-82
2024/01/25 10:56:58;;;;;;;13.52;6.00;;;;;;;9.61;79.54;101621.47;5051521;28;20052;-81
2024/01/25 10:59:25;;;;;;;13.18;6.55;;;;;;;9.66;79.43;101622.44;5069061;28;20109;-77
2024/01/25 11:01:51;;;;;;;26.87;7.17;;;;;;;9.72;79.20;101619.06;5069491;28;20461;-81
2024/01/25 11:04:17;;;;;;;28.33;7.68;;;;;;;9.69;79.40;101608.47;5069123;28;20060;-81
2024/01/25 11:06:46;;;;;;;26.52;7.50;;;;;;;9.60;79.52;101606.53;5069243;28;20033;-82
2024/01/25 11:09:20;;;;;;;15.52;7.03;;;;;;;9.58;79.46;101603.88;5069278;28;20052;-81
2024/01/25 11:11:48;;;;;;;15.33;7.30;;;;;;;9.65;79.59;101586.47;5069288;28;20419;-82
2024/01/25 11:14:16;;;;;;;17.25;7.65;;;;;;;9.69;79.44;101585.69;5069616;28;20033;-80
2024/01/25 11:16:44;;;;;;;19.40;8.65;;;;;;;9.63;79.65;101577.66;5069115;28;20078;-81
2024/01/25 11:19:16;;;;;;;21.95;8.20;;;;;;;9.56;79.89;101576.66;5069002;28;20032;-81
2024/01/25 11:21:44;;;;;;;24.17;8.48;;;;;;;9.54;80.06;101578.34;5068779;28;20060;-81